Time;durP1;ratioP1;P1;durP2;ratioP2;P2;SDS_P1;SDS_P2;PMS_P1;PMS_P2;Temp;Humidity;BMP_temperature;BMP_pressure;BME280_temperature;BME280_humidity;BME280_pressure;Samples;Min_cycle;Max_cycle;Signal;HPM_P1;HPM_P2
2023/06/08 00:01:07;;;;;;;8.70;7.50;;;14.20;68.70;;;;;;5018380;28;20179;-56
2023/06/08 00:03:32;;;;;;;7.27;6.57;;;14.20;69.30;;;;;;5020445;28;20204;-57
2023/06/08 00:05:59;;;;;;;11.97;6.50;;;14.10;69.60;;;;;;5019803;28;20449;-58
2023/06/08 00:08:25;;;;;;;9.73;6.87;;;14.10;69.80;;;;;;5023660;28;20176;-58
2023/06/08 00:10:51;;;;;;;7.20;6.50;;;14.00;70.30;;;;;;5018822;28;20431;-57
2023/06/08 00:13:17;;;;;;;8.07;6.40;;;14.00;70.40;;;;;;5015227;28;20450;-55
2023/06/08 00:15:42;;;;;;;7.93;6.00;;;14.00;70.80;;;;;;5023659;28;20441;-57
2023/06/08 00:18:09;;;;;;;7.37;6.10;;;13.90;71.30;;;;;;5021052;28;20186;-57
2023/06/08 00:20:35;;;;;;;10.20;6.60;;;13.80;71.70;;;;;;5019643;28;20229;-56
2023/06/08 00:23:04;;;;;;;12.70;6.83;;;13.80;72.40;;;;;;5013026;28;20462;-56
2023/06/08 00:25:30;;;;;;;8.00;7.20;;;13.70;72.80;;;;;;5013962;28;20434;-58
2023/06/08 00:27:56;;;;;;;7.97;7.17;;;13.70;73.80;;;;;;5015330;28;20430;-57
2023/06/08 00:30:22;;;;;;;11.60;6.70;;;13.70;74.70;;;;;;5021288;28;20434;-58
2023/06/08 00:32:47;;;;;;;9.07;7.00;;;13.60;75.10;;;;;;5010174;28;20231;-56
2023/06/08 00:35:14;;;;;;;7.77;6.87;;;13.60;76.00;;;;;;5009512;28;20184;-57
2023/06/08 00:37:40;;;;;;;12.40;6.27;;;13.60;76.80;;;;;;5019447;28;20223;-56
2023/06/08 00:40:06;;;;;;;7.93;6.70;;;13.60;76.90;;;;;;5023250;28;20430;-57
2023/06/08 00:42:32;;;;;;;7.90;6.40;;;13.60;77.60;;;;;;5016248;28;20447;-57
2023/06/08 00:44:58;;;;;;;8.57;6.90;;;13.60;77.70;;;;;;5019865;28;20436;-58
2023/06/08 00:47:23;;;;;;;7.60;6.90;;;13.60;77.80;;;;;;5022733;28;20176;-57
2023/06/08 00:49:50;;;;;;;8.10;7.30;;;13.60;78.20;;;;;;5020354;28;20176;-58
2023/06/08 00:52:16;;;;;;;8.27;7.10;;;13.50;78.50;;;;;;5020109;28;20196;-57
2023/06/08 00:54:43;;;;;;;10.10;7.17;;;13.50;78.70;;;;;;5018183;28;20445;-57
2023/06/08 00:57:10;;;;;;;7.93;6.90;;;13.50;79.10;;;;;;5016837;28;20816;-58
2023/06/08 00:59:36;;;;;;;10.27;7.40;;;13.40;79.00;;;;;;5018244;28;20833;-57
2023/06/08 01:02:04;;;;;;;11.70;6.70;;;13.40;79.30;;;;;;5018788;28;20466;-58
2023/06/08 01:04:31;;;;;;;6.77;5.97;;;13.30;79.90;;;;;;5017042;28;22427;-57
2023/06/08 01:07:19;;;;;;;7.60;6.90;;;13.20;80.30;;;;;;5021042;28;21192;-57
2023/06/08 01:10:07;;;;;;;6.53;5.90;;;13.20;81.10;;;;;;5018140;28;20517;-58
2023/06/08 01:13:01;;;;;;;10.57;7.70;;;13.10;82.20;;;;;;5022048;28;20457;-58
2023/06/08 01:15:29;;;;;;;9.53;6.90;;;13.10;83.30;;;;;;5016652;28;20426;-57
2023/06/08 01:17:58;;;;;;;7.73;6.90;;;13.00;84.00;;;;;;5017074;28;20427;-57
2023/06/08 01:20:42;;;;;;;8.90;7.40;;;13.00;84.80;;;;;;5023693;28;20439;-54
2023/06/08 01:23:34;;;;;;;8.10;7.17;;;13.00;86.70;;;;;;5022971;28;20459;-57
2023/06/08 01:26:03;;;;;;;8.93;7.87;;;12.90;88.20;;;;;;5020988;28;20426;-58
2023/06/08 01:28:30;;;;;;;9.27;7.73;;;12.90;89.90;;;;;;5015321;28;20435;-57
2023/06/08 01:30:58;;;;;;;8.40;6.33;;;12.90;90.50;;;;;;5018129;28;20593;-58
2023/06/08 01:33:28;;;;;;;8.57;7.60;;;12.90;90.80;;;;;;5027104;28;20457;-59
2023/06/08 01:35:59;;;;;;;10.93;7.53;;;12.80;91.00;;;;;;5019923;28;20422;-58
2023/06/08 01:38:44;;;;;;;8.20;7.40;;;12.80;91.00;;;;;;5025178;28;20454;-58
2023/06/08 01:41:15;;;;;;;11.03;7.50;;;12.80;91.30;;;;;;5020781;28;20435;-57
2023/06/08 01:43:44;;;;;;;8.57;6.83;;;12.70;91.40;;;;;;5014555;28;20510;-57
2023/06/08 01:46:12;;;;;;;8.93;7.17;;;12.70;91.70;;;;;;5021259;28;20426;-57
2023/06/08 01:48:39;;;;;;;9.20;7.23;;;12.70;91.90;;;;;;5025738;28;20426;-57
2023/06/08 01:51:07;;;;;;;7.60;6.80;;;12.70;91.70;;;;;;5019600;28;20853;-57
2023/06/08 01:53:34;;;;;;;7.73;7.03;;;12.60;91.80;;;;;;5019575;28;20454;-57
2023/06/08 01:55:59;;;;;;;8.00;7.17;;;12.60;91.40;;;;;;5023432;28;20883;-56
2023/06/08 01:58:25;;;;;;;7.73;6.80;;;12.60;91.20;;;;;;5022455;28;20450;-57
2023/06/08 02:00:51;;;;;;;7.23;6.53;;;12.50;91.30;;;;;;5020221;28;20676;-57
2023/06/08 02:03:16;;;;;;;7.73;6.93;;;12.50;91.40;;;;;;5023789;28;20223;-58
2023/06/08 02:05:42;;;;;;;7.93;7.13;;;12.50;92.10;;;;;;5021210;28;20175;-58
2023/06/08 02:08:07;;;;;;;8.77;7.87;;;12.40;91.90;;;;;;5014092;28;20176;-56
2023/06/08 02:10:33;;;;;;;12.80;7.63;;;12.40;91.80;;;;;;5017840;28;20180;-56
2023/06/08 02:12:59;;;;;;;11.83;7.43;;;12.30;92.30;;;;;;5020667;28;20283;-57
2023/06/08 02:15:25;;;;;;;7.50;6.80;;;12.30;92.50;;;;;;5011289;28;22296;-57
2023/06/08 02:17:51;;;;;;;8.30;7.40;;;12.30;92.70;;;;;;5019356;28;20273;-57
2023/06/08 02:20:17;;;;;;;8.40;6.57;;;12.30;93.50;;;;;;5017769;28;20184;-55
2023/06/08 02:22:44;;;;;;;7.50;6.80;;;12.20;94.30;;;;;;5011149;28;21211;-57
2023/06/08 02:25:09;;;;;;;7.67;6.87;;;12.20;94.40;;;;;;5021385;28;20168;-57
2023/06/08 02:27:38;;;;;;;12.53;6.77;;;12.20;95.40;;;;;;5016711;28;20457;-55
2023/06/08 02:30:06;;;;;;;8.53;7.30;;;12.20;95.40;;;;;;5013298;28;20172;-57
2023/06/08 02:32:34;;;;;;;8.43;7.17;;;12.10;95.60;;;;;;5019345;28;20442;-55
2023/06/08 02:35:01;;;;;;;7.70;6.90;;;12.10;95.70;;;;;;5025629;28;20573;-56
2023/06/08 02:37:27;;;;;;;8.03;7.20;;;12.10;95.90;;;;;;5025320;28;20480;-57
2023/06/08 02:39:52;;;;;;;8.40;7.33;;;12.00;95.90;;;;;;5023886;28;20450;-57
2023/06/08 02:42:18;;;;;;;8.63;7.37;;;12.00;96.30;;;;;;5023286;28;20195;-57
2023/06/08 02:44:45;;;;;;;9.07;7.00;;;12.00;96.60;;;;;;5022744;28;20199;-57
2023/06/08 02:47:11;;;;;;;7.97;7.13;;;12.00;97.40;;;;;;5017410;28;20255;-57
2023/06/08 02:49:37;;;;;;;8.63;7.73;;;12.00;97.60;;;;;;5021616;28;20514;-57
2023/06/08 02:52:03;;;;;;;9.67;7.03;;;11.90;98.10;;;;;;5018873;28;20848;-55
2023/06/08 02:54:28;;;;;;;11.03;7.63;;;11.90;98.70;;;;;;5018458;28;20235;-58
2023/06/08 02:56:54;;;;;;;8.00;7.20;;;11.90;99.30;;;;;;5016430;28;21286;-58
2023/06/08 02:59:20;;;;;;;8.70;7.37;;;11.90;99.10;;;;;;5022103;28;20187;-58
2023/06/08 03:01:54;;;;;;;8.30;7.07;;;11.90;99.30;;;;;;5015193;28;20588;-58
2023/06/08 03:04:22;;;;;;;12.43;8.07;;;11.90;99.10;;;;;;5019494;28;20205;-56
2023/06/08 03:06:53;;;;;;;9.10;7.57;;;11.90;99.00;;;;;;5020061;28;20985;-56
2023/06/08 03:09:22;;;;;;;10.50;7.73;;;11.90;97.90;;;;;;5013741;28;20426;-57
2023/06/08 03:11:48;;;;;;;9.17;7.33;;;11.90;97.50;;;;;;5020020;28;20533;-57
2023/06/08 03:14:16;;;;;;;11.53;7.50;;;11.80;97.30;;;;;;5022999;28;20541;-57
2023/06/08 03:16:43;;;;;;;8.53;7.60;;;11.70;97.90;;;;;;5021055;28;20897;-58
2023/06/08 03:19:09;;;;;;;13.43;7.60;;;11.80;98.40;;;;;;5024255;28;20438;-57
2023/06/08 03:21:36;;;;;;;7.90;7.10;;;11.70;98.60;;;;;;5023576;28;20450;-56
2023/06/08 03:24:03;;;;;;;7.53;6.83;;;11.70;98.90;;;;;;5020083;28;20459;-57
2023/06/08 03:26:29;;;;;;;11.33;7.27;;;11.70;98.60;;;;;;5014071;28;20866;-58
2023/06/08 03:28:54;;;;;;;10.83;8.33;;;11.60;98.40;;;;;;5012595;28;20439;-56
2023/06/08 03:31:20;;;;;;;11.57;7.50;;;11.60;98.50;;;;;;5014970;28;20259;-57
2023/06/08 03:33:46;;;;;;;8.93;7.50;;;11.60;98.80;;;;;;5021891;28;20191;-57
2023/06/08 03:36:12;;;;;;;9.40;7.73;;;11.60;99.00;;;;;;5010848;28;20497;-56
2023/06/08 03:38:38;;;;;;;9.07;7.40;;;11.60;99.30;;;;;;5012660;28;20831;-58
2023/06/08 03:41:04;;;;;;;10.17;7.57;;;11.60;99.80;;;;;;5022326;28;20226;-57
2023/06/08 03:43:29;;;;;;;11.57;8.20;;;11.60;99.90;;;;;;5026670;28;20226;-57
2023/06/08 03:45:55;;;;;;;11.23;7.90;;;11.60;99.90;;;;;;5025847;28;20206;-57
2023/06/08 03:48:21;;;;;;;8.40;6.70;;;11.60;99.90;;;;;;5023044;28;20676;-58
2023/06/08 03:50:46;;;;;;;11.37;7.70;;;11.60;99.90;;;;;;5020487;28;20180;-57
2023/06/08 03:53:12;;;;;;;10.37;7.60;;;11.60;99.90;;;;;;5022395;28;20329;-57
2023/06/08 03:55:38;;;;;;;8.73;7.20;;;11.70;99.90;;;;;;5023785;28;20180;-57
2023/06/08 03:58:04;;;;;;;8.50;7.40;;;11.60;99.90;;;;;;5022587;28;20184;-57
2023/06/08 04:00:30;;;;;;;9.63;7.60;;;11.70;99.60;;;;;;5022527;28;20445;-58
2023/06/08 04:02:56;;;;;;;7.70;6.90;;;11.70;99.70;;;;;;5023195;28;20206;-57
2023/06/08 04:05:22;;;;;;;9.00;7.80;;;11.60;99.80;;;;;;5023664;28;20268;-57
2023/06/08 04:07:50;;;;;;;8.43;7.53;;;11.60;99.90;;;;;;5022774;28;20542;-56
2023/06/08 04:10:16;;;;;;;8.40;7.13;;;11.60;99.80;;;;;;5015740;28;20255;-56
2023/06/08 04:12:42;;;;;;;7.63;6.90;;;11.60;99.90;;;;;;5017751;28;20559;-57
2023/06/08 04:15:09;;;;;;;11.00;8.63;;;11.60;99.90;;;;;;5022462;28;20659;-57
2023/06/08 04:17:34;;;;;;;14.97;8.20;;;11.60;99.90;;;;;;5020477;28;20251;-57
2023/06/08 04:20:00;;;;;;;9.63;7.50;;;11.60;99.90;;;;;;5014017;28;20426;-57
2023/06/08 04:22:27;;;;;;;12.27;8.77;;;11.60;99.90;;;;;;5015244;28;20278;-57
2023/06/08 04:24:52;;;;;;;11.17;7.73;;;11.60;99.90;;;;;;5020748;28;20200;-55
2023/06/08 04:27:19;;;;;;;9.17;7.70;;;11.60;99.90;;;;;;5011727;28;21056;-55
2023/06/08 04:29:45;;;;;;;10.10;7.43;;;11.70;99.90;;;;;;5014266;28;20180;-58
2023/06/08 04:32:11;;;;;;;8.37;7.47;;;11.70;99.90;;;;;;5018783;28;20449;-57
2023/06/08 04:34:37;;;;;;;9.10;6.80;;;11.70;99.90;;;;;;5013736;28;20183;-57
2023/06/08 04:37:03;;;;;;;9.83;7.57;;;11.80;99.90;;;;;;5024063;28;20511;-58
2023/06/08 04:39:29;;;;;;;10.67;7.30;;;11.80;99.50;;;;;;5023648;28;20438;-57
2023/06/08 04:41:55;;;;;;;11.27;8.07;;;11.90;98.50;;;;;;5022110;28;20274;-57
2023/06/08 04:44:21;;;;;;;10.87;8.40;;;12.00;97.40;;;;;;5025278;28;20470;-57
2023/06/08 04:46:47;;;;;;;9.53;8.07;;;12.00;97.60;;;;;;5023886;28;20188;-57
2023/06/08 04:49:14;;;;;;;11.40;7.27;;;12.10;96.50;;;;;;5023574;28;20176;-57
2023/06/08 04:51:46;;;;;;;11.10;7.50;;;12.20;95.60;;;;;;5021288;28;20426;-58
2023/06/08 04:54:13;;;;;;;10.87;8.37;;;12.20;94.10;;;;;;5020527;28;20924;-56
2023/06/08 04:56:42;;;;;;;8.47;7.20;;;12.20;94.00;;;;;;5012639;28;20570;-57
2023/06/08 04:59:09;;;;;;;8.90;8.00;;;12.20;95.50;;;;;;5023673;28;20449;-56
2023/06/08 05:01:35;;;;;;;11.40;7.93;;;12.30;96.80;;;;;;5013092;28;20454;-58
2023/06/08 05:04:01;;;;;;;9.30;7.20;;;12.40;96.40;;;;;;5014523;28;20494;-57
2023/06/08 05:06:27;;;;;;;8.87;7.97;;;12.50;96.70;;;;;;5019794;28;20426;-57
2023/06/08 05:08:53;;;;;;;11.57;7.97;;;12.60;96.50;;;;;;5013642;28;20918;-55
2023/06/08 05:11:18;;;;;;;8.33;7.53;;;12.70;95.60;;;;;;5013806;28;20210;-53
2023/06/08 05:13:44;;;;;;;12.57;7.97;;;12.80;94.20;;;;;;5014921;28;20235;-56
2023/06/08 05:16:10;;;;;;;8.50;7.40;;;12.90;92.90;;;;;;5016184;28;20180;-56
2023/06/08 05:18:36;;;;;;;7.63;6.87;;;13.00;94.10;;;;;;5012695;28;20182;-55
2023/06/08 05:21:02;;;;;;;8.43;7.53;;;13.10;93.60;;;;;;5004911;28;21033;-55
2023/06/08 05:23:27;;;;;;;12.30;8.07;;;13.30;93.60;;;;;;5017880;28;20206;-56
2023/06/08 05:25:53;;;;;;;12.73;7.60;;;13.40;92.30;;;;;;5023480;28;20264;-51
2023/06/08 05:28:19;;;;;;;8.00;7.20;;;13.50;91.90;;;;;;5020921;28;20186;-57
2023/06/08 05:30:44;;;;;;;9.90;7.70;;;13.70;92.20;;;;;;5018943;28;20199;-57
2023/06/08 05:33:10;;;;;;;9.00;6.93;;;13.70;90.50;;;;;;5021014;28;20209;-58
2023/06/08 05:35:36;;;;;;;9.63;7.30;;;13.80;90.10;;;;;;5022652;28;20198;-58
2023/06/08 05:38:02;;;;;;;9.13;7.20;;;13.80;89.10;;;;;;5011060;28;20199;-56
2023/06/08 05:40:27;;;;;;;9.70;6.80;;;13.90;88.80;;;;;;5018774;28;20258;-57
2023/06/08 05:42:53;;;;;;;9.00;7.60;;;13.90;88.20;;;;;;5021980;28;20286;-56
2023/06/08 05:45:18;;;;;;;9.53;7.57;;;13.90;87.10;;;;;;5021718;28;20187;-57
2023/06/08 05:47:44;;;;;;;9.27;7.10;;;14.00;87.30;;;;;;5022022;28;20180;-58
2023/06/08 05:50:10;;;;;;;9.40;6.97;;;14.00;87.50;;;;;;5022460;28;20176;-58
2023/06/08 05:52:35;;;;;;;12.63;6.83;;;14.10;87.80;;;;;;5019208;28;20228;-57
2023/06/08 05:55:01;;;;;;;8.87;7.53;;;14.10;87.80;;;;;;5017603;28;20181;-57
2023/06/08 05:57:27;;;;;;;7.63;6.20;;;14.20;89.30;;;;;;5020322;28;20194;-58
2023/06/08 05:59:53;;;;;;;8.77;7.40;;;14.20;89.30;;;;;;5017415;28;20279;-55
2023/06/08 06:02:18;;;;;;;8.70;7.57;;;14.30;88.80;;;;;;5018542;28;20467;-59
2023/06/08 06:04:44;;;;;;;10.53;6.70;;;14.30;88.20;;;;;;5014703;28;20225;-57
2023/06/08 06:07:10;;;;;;;8.17;7.30;;;14.30;86.00;;;;;;5019091;28;20199;-53
2023/06/08 06:09:36;;;;;;;10.10;7.00;;;14.30;82.40;;;;;;5008569;28;20211;-57
2023/06/08 06:12:02;;;;;;;9.80;7.10;;;14.40;82.70;;;;;;5010609;28;20668;-59
2023/06/08 06:14:37;;;;;;;7.13;6.43;;;14.50;83.90;;;;;;5008911;28;20215;-57
2023/06/08 06:17:04;;;;;;;8.73;6.90;;;14.60;81.60;;;;;;5013831;28;20434;-54
2023/06/08 06:19:34;;;;;;;11.60;6.90;;;14.80;80.60;;;;;;5006642;28;20451;-54
2023/06/08 06:22:00;;;;;;;10.30;7.00;;;14.90;80.10;;;;;;5009250;28;20614;-54
2023/06/08 06:24:26;;;;;;;8.73;7.20;;;15.10;79.30;;;;;;5011066;28;21269;-55
2023/06/08 06:26:51;;;;;;;7.27;6.50;;;15.20;78.60;;;;;;5007320;28;20180;-55
2023/06/08 06:29:17;;;;;;;7.00;6.23;;;15.40;77.20;;;;;;5010901;28;20886;-60
2023/06/08 06:31:42;;;;;;;7.67;6.87;;;15.50;76.40;;;;;;5011418;28;20184;-56
2023/06/08 06:34:08;;;;;;;9.63;7.27;;;15.60;72.20;;;;;;5021839;28;20203;-55
2023/06/08 06:36:33;;;;;;;10.23;7.40;;;15.70;72.20;;;;;;5017266;28;20706;-56
2023/06/08 06:38:59;;;;;;;11.60;6.90;;;15.80;71.30;;;;;;5014215;28;20194;-56
2023/06/08 06:41:25;;;;;;;8.63;7.07;;;15.90;70.50;;;;;;5016845;28;20191;-58
2023/06/08 06:43:51;;;;;;;8.03;7.20;;;16.00;70.10;;;;;;5017107;28;20675;-58
2023/06/08 06:46:19;;;;;;;9.10;6.43;;;16.10;70.10;;;;;;5016994;28;20438;-59
2023/06/08 06:48:45;;;;;;;6.60;6.00;;;16.20;69.70;;;;;;5010074;28;20181;-58
2023/06/08 06:51:11;;;;;;;8.53;6.37;;;16.40;67.90;;;;;;5015369;28;20443;-56
2023/06/08 06:53:36;;;;;;;10.93;7.00;;;16.50;67.40;;;;;;5015071;28;20247;-58
2023/06/08 06:56:02;;;;;;;9.40;6.77;;;16.70;66.70;;;;;;5021862;28;20915;-57
2023/06/08 06:58:30;;;;;;;7.90;6.80;;;16.80;65.00;;;;;;5022334;28;20606;-56
2023/06/08 07:00:57;;;;;;;10.83;6.80;;;16.90;64.70;;;;;;5016095;28;20521;-57
2023/06/08 07:03:26;;;;;;;8.63;5.87;;;17.10;64.80;;;;;;5009464;28;20474;-58
2023/06/08 07:05:58;;;;;;;8.00;6.03;;;17.20;64.60;;;;;;5017025;28;20516;-58
2023/06/08 07:08:27;;;;;;;11.73;7.73;;;17.40;64.00;;;;;;5018357;28;20430;-56
2023/06/08 07:10:53;;;;;;;7.67;6.90;;;17.50;63.10;;;;;;5014401;28;20458;-58
2023/06/08 07:13:19;;;;;;;8.97;6.03;;;17.60;62.70;;;;;;5017658;28;20859;-56
2023/06/08 07:15:44;;;;;;;9.57;6.90;;;17.70;62.80;;;;;;5014871;28;20187;-56
2023/06/08 07:18:10;;;;;;;10.33;6.97;;;17.90;62.90;;;;;;5012131;28;20188;-57
2023/06/08 07:20:36;;;;;;;9.47;6.80;;;18.00;62.60;;;;;;5014722;28;20268;-57
2023/06/08 07:23:01;;;;;;;7.23;6.53;;;18.10;62.60;;;;;;5011762;28;20474;-58
2023/06/08 07:25:27;;;;;;;8.70;6.60;;;18.30;62.40;;;;;;5013390;28;20196;-55
2023/06/08 07:27:53;;;;;;;9.80;7.17;;;18.40;62.80;;;;;;5008450;28;20246;-59
2023/06/08 07:30:18;;;;;;;9.07;5.87;;;18.50;62.90;;;;;;5012312;28;20180;-57
2023/06/08 07:32:45;;;;;;;8.07;6.87;;;18.70;63.10;;;;;;5002367;28;20199;-56
2023/06/08 07:35:11;;;;;;;11.20;5.93;;;18.90;62.50;;;;;;5005111;28;20184;-59
2023/06/08 07:37:37;;;;;;;7.00;5.90;;;19.20;61.30;;;;;;4999055;28;21328;-58
2023/06/08 07:40:12;;;;;;;7.17;5.67;;;19.50;60.20;;;;;;5007196;28;20566;-57
2023/06/08 07:42:37;;;;;;;6.27;5.70;;;19.80;59.20;;;;;;5006503;28;20207;-57
2023/06/08 07:45:04;;;;;;;5.67;5.10;;;20.10;58.60;;;;;;5007503;28;20613;-57
2023/06/08 07:47:29;;;;;;;5.90;5.20;;;20.30;57.80;;;;;;5013798;28;20184;-56
2023/06/08 07:49:56;;;;;;;8.43;5.50;;;20.40;56.60;;;;;;5008377;28;21071;-57
2023/06/08 07:52:22;;;;;;;6.70;5.93;;;20.50;56.00;;;;;;5007010;28;20195;-55
2023/06/08 07:54:48;;;;;;;5.87;4.83;;;20.60;56.10;;;;;;5018142;28;20437;-56
2023/06/08 07:57:13;;;;;;;8.20;6.67;;;20.60;56.10;;;;;;5008908;28;20250;-57
2023/06/08 07:59:39;;;;;;;6.43;5.70;;;20.60;55.20;;;;;;5023736;28;20187;-57
2023/06/08 08:02:08;;;;;;;8.50;5.90;;;20.60;54.20;;;;;;5024988;28;20241;-57
2023/06/08 08:04:33;;;;;;;7.30;6.30;;;20.50;54.40;;;;;;5014863;28;20208;-58
2023/06/08 08:06:59;;;;;;;7.80;5.87;;;20.50;55.20;;;;;;5021558;28;20434;-56
2023/06/08 08:09:25;;;;;;;7.90;5.97;;;20.50;55.50;;;;;;5021578;28;20184;-57
2023/06/08 08:11:50;;;;;;;6.43;5.83;;;20.50;54.90;;;;;;5017378;28;20270;-57
2023/06/08 08:14:16;;;;;;;8.60;5.97;;;20.50;55.00;;;;;;5017816;28;20187;-58
2023/06/08 08:16:41;;;;;;;7.67;6.27;;;20.70;54.70;;;;;;5019939;28;20180;-57
2023/06/08 08:19:07;;;;;;;9.53;6.73;;;20.70;54.60;;;;;;5023464;28;20202;-57
2023/06/08 08:21:32;;;;;;;10.87;5.60;;;20.80;54.60;;;;;;5020969;28;20637;-56
2023/06/08 08:23:58;;;;;;;7.27;5.30;;;20.90;54.30;;;;;;5023317;28;20211;-57
2023/06/08 08:26:24;;;;;;;9.07;5.60;;;20.90;52.60;;;;;;5020672;28;20206;-56
2023/06/08 08:28:49;;;;;;;7.20;5.67;;;20.90;51.50;;;;;;5021655;28;20228;-57
2023/06/08 08:31:15;;;;;;;7.80;6.30;;;20.90;51.40;;;;;;5022615;28;20179;-58
2023/06/08 08:33:43;;;;;;;8.47;6.47;;;20.90;52.50;;;;;;5022915;28;20219;-57
2023/06/08 08:36:08;;;;;;;8.03;6.83;;;20.80;53.50;;;;;;5019212;28;20629;-57
2023/06/08 08:38:34;;;;;;;7.33;6.07;;;20.70;53.90;;;;;;5025138;28;20438;-54
2023/06/08 08:41:05;;;;;;;8.50;6.33;;;20.60;54.00;;;;;;5022810;28;20614;-58
2023/06/08 08:43:41;;;;;;;8.03;6.40;;;20.50;54.30;;;;;;5025034;28;20219;-56
2023/06/08 08:46:07;;;;;;;8.10;5.63;;;20.30;54.20;;;;;;5015574;28;20432;-57
2023/06/08 08:48:37;;;;;;;6.80;6.20;;;20.30;54.30;;;;;;5025781;28;20426;-55
2023/06/08 08:51:05;;;;;;;8.87;5.73;;;20.20;54.00;;;;;;5024032;28;20646;-56
2023/06/08 08:53:33;;;;;;;7.67;5.37;;;20.10;52.40;;;;;;5016871;28;20553;-56
2023/06/08 08:55:59;;;;;;;6.87;5.00;;;20.00;51.00;;;;;;5027394;28;20537;-57
2023/06/08 08:58:25;;;;;;;6.00;4.80;;;19.90;50.20;;;;;;5027973;28;20426;-56
2023/06/08 09:00:51;;;;;;;8.13;5.10;;;19.80;50.40;;;;;;5024306;28;20465;-57
2023/06/08 09:03:17;;;;;;;5.70;4.80;;;19.80;50.00;;;;;;5029646;28;20532;-57
2023/06/08 09:05:44;;;;;;;6.63;4.37;;;19.70;49.50;;;;;;5027600;28;21190;-56
2023/06/08 09:08:11;;;;;;;8.07;5.17;;;19.70;46.40;;;;;;5027178;28;20453;-57
2023/06/08 09:10:36;;;;;;;7.13;4.70;;;19.60;46.00;;;;;;5025281;28;20526;-57
2023/06/08 09:13:02;;;;;;;8.00;4.93;;;19.60;46.70;;;;;;5026724;28;20493;-56
2023/06/08 09:15:30;;;;;;;6.07;4.60;;;19.60;46.80;;;;;;5023734;28;20191;-57
2023/06/08 09:17:57;;;;;;;4.50;4.10;;;19.60;45.70;;;;;;5024212;28;20270;-57
2023/06/08 09:20:27;;;;;;;6.00;4.77;;;19.60;46.00;;;;;;5021626;28;20481;-56
2023/06/08 09:22:53;;;;;;;11.33;4.83;;;19.50;46.00;;;;;;5026180;28;20466;-57
2023/06/08 09:25:36;;;;;;;5.80;4.70;;;19.50;46.60;;;;;;5025889;28;20443;-57
2023/06/08 09:28:28;;;;;;;4.30;3.90;;;19.40;47.10;;;;;;5029511;28;20439;-58
2023/06/08 09:30:57;;;;;;;5.93;5.00;;;19.40;47.10;;;;;;5025407;28;20442;-58
2023/06/08 09:33:27;;;;;;;5.17;4.67;;;19.30;47.70;;;;;;5022618;28;20450;-57
2023/06/08 09:35:59;;;;;;;9.30;6.10;;;19.30;48.90;;;;;;5024595;28;20466;-58
2023/06/08 09:38:29;;;;;;;6.77;5.57;;;19.30;49.20;;;;;;5027477;28;20503;-59
2023/06/08 09:41:14;;;;;;;5.40;4.70;;;19.30;49.50;;;;;;5026442;28;20442;-58
2023/06/08 09:43:41;;;;;;;7.53;5.23;;;19.30;50.20;;;;;;5016582;28;20512;-57
2023/06/08 09:46:11;;;;;;;6.60;4.77;;;19.30;51.70;;;;;;5021603;28;20960;-57
2023/06/08 09:48:39;;;;;;;9.53;4.97;;;19.40;53.10;;;;;;5021582;28;20427;-57
2023/06/08 09:51:06;;;;;;;9.20;4.37;;;19.30;52.60;;;;;;5025845;28;20429;-57
2023/06/08 09:53:33;;;;;;;8.67;5.50;;;19.30;51.80;;;;;;5023735;28;20450;-58
2023/06/08 09:56:01;;;;;;;6.37;4.57;;;19.30;51.30;;;;;;5028371;28;20825;-55
2023/06/08 09:58:27;;;;;;;6.00;5.40;;;19.30;50.60;;;;;;5023407;28;20422;-54
2023/06/08 10:01:05;;;;;;;10.67;4.43;;;19.30;50.90;;;;;;5023251;28;21159;-55
2023/06/08 10:03:39;;;;;;;9.90;5.30;;;19.40;50.80;;;;;;5021284;28;21000;-57
2023/06/08 10:06:09;;;;;;;8.23;5.50;;;19.40;49.90;;;;;;5024920;28;20427;-57
2023/06/08 10:08:37;;;;;;;7.90;4.90;;;19.40;49.30;;;;;;5023834;28;20532;-54
2023/06/08 10:11:04;;;;;;;5.90;5.07;;;19.50;49.50;;;;;;5025136;28;20919;-55
2023/06/08 10:13:30;;;;;;;7.40;5.23;;;19.50;49.70;;;;;;5022348;28;20842;-55
2023/06/08 10:15:56;;;;;;;6.57;4.83;;;19.50;50.20;;;;;;5026077;28;20434;-57
2023/06/08 10:18:23;;;;;;;12.33;5.40;;;19.60;49.80;;;;;;5026359;28;20441;-56
2023/06/08 10:20:49;;;;;;;5.53;4.77;;;19.60;50.50;;;;;;5024706;28;20426;-56
2023/06/08 10:23:15;;;;;;;6.17;4.80;;;19.60;51.10;;;;;;5026771;28;20526;-57
2023/06/08 10:25:44;;;;;;;6.03;4.93;;;19.70;51.40;;;;;;5018489;28;20940;-57
2023/06/08 10:28:10;;;;;;;5.50;4.57;;;19.70;51.40;;;;;;5019995;28;20414;-57
2023/06/08 10:30:41;;;;;;;7.63;5.70;;;19.70;50.60;;;;;;5023998;28;20430;-54
2023/06/08 10:33:08;;;;;;;7.80;4.90;;;19.70;50.10;;;;;;5027012;28;20434;-56
2023/06/08 10:35:34;;;;;;;8.10;5.27;;;19.70;49.60;;;;;;5024051;28;20435;-57
2023/06/08 10:38:14;;;;;;;5.37;4.37;;;19.70;50.50;;;;;;5019002;28;20438;-58
2023/06/08 10:40:45;;;;;;;5.03;4.53;;;19.70;51.60;;;;;;5013022;28;20423;-57
2023/06/08 10:43:10;;;;;;;5.83;4.57;;;19.70;53.70;;;;;;5023459;28;20454;-57
2023/06/08 10:45:38;;;;;;;8.03;3.63;;;19.70;54.40;;;;;;5023334;28;20419;-58
2023/06/08 10:48:09;;;;;;;5.67;4.43;;;19.60;52.00;;;;;;5020945;28;20275;-56
2023/06/08 10:50:38;;;;;;;6.60;4.90;;;19.60;51.00;;;;;;5021645;28;20427;-57
2023/06/08 10:53:04;;;;;;;6.50;5.20;;;19.50;50.60;;;;;;5015324;28;20449;-57
2023/06/08 10:55:30;;;;;;;6.20;5.00;;;19.40;50.20;;;;;;5023947;28;20499;-57
2023/06/08 10:58:06;;;;;;;6.30;4.50;;;19.40;52.80;;;;;;5021992;28;20446;-58
2023/06/08 11:00:33;;;;;;;6.10;5.10;;;19.30;53.10;;;;;;5017494;28;20476;-56
2023/06/08 11:02:59;;;;;;;5.23;4.63;;;19.20;53.00;;;;;;5023884;28;20434;-58
2023/06/08 11:05:29;;;;;;;6.80;5.20;;;19.20;54.20;;;;;;5022965;28;20806;-58
2023/06/08 11:07:56;;;;;;;6.43;5.60;;;19.10;53.20;;;;;;5019237;28;20419;-57
2023/06/08 11:10:22;;;;;;;6.47;5.40;;;19.20;53.70;;;;;;5021343;28;21032;-57
2023/06/08 11:12:48;;;;;;;8.03;5.73;;;19.20;54.60;;;;;;5024484;28;20461;-58
2023/06/08 11:15:13;;;;;;;10.13;5.43;;;19.20;54.70;;;;;;5020497;28;20953;-57
2023/06/08 11:17:43;;;;;;;7.20;5.57;;;19.20;54.90;;;;;;5021069;28;20176;-59
2023/06/08 11:20:10;;;;;;;5.83;5.20;;;19.30;55.70;;;;;;5015416;28;20175;-58
2023/06/08 11:22:39;;;;;;;5.40;4.90;;;19.30;55.10;;;;;;5020822;28;20573;-56
2023/06/08 11:25:07;;;;;;;13.60;5.33;;;19.40;53.90;;;;;;5021569;28;21115;-56
2023/06/08 11:27:33;;;;;;;8.50;4.80;;;19.50;52.70;;;;;;5025745;28;20812;-58
2023/06/08 11:29:58;;;;;;;5.70;4.60;;;19.50;52.00;;;;;;5023646;28;20468;-58
2023/06/08 11:32:26;;;;;;;5.90;4.80;;;19.60;51.00;;;;;;5016863;28;20200;-57
2023/06/08 11:34:53;;;;;;;5.43;4.83;;;19.80;50.00;;;;;;5022469;28;20670;-58
2023/06/08 11:37:18;;;;;;;7.63;4.80;;;19.90;49.30;;;;;;5022025;28;20478;-55
2023/06/08 11:39:45;;;;;;;7.83;5.10;;;20.00;49.60;;;;;;5020835;28;20437;-58
2023/06/08 11:42:11;;;;;;;6.70;5.67;;;20.20;49.90;;;;;;5025670;28;20273;-57
2023/06/08 11:44:36;;;;;;;9.30;5.70;;;20.40;50.20;;;;;;5025191;28;20498;-58
2023/06/08 11:47:04;;;;;;;6.83;5.20;;;20.60;49.40;;;;;;5022984;28;20171;-58
2023/06/08 11:49:57;;;;;;;5.50;5.00;;;20.80;49.30;;;;;;5019496;28;20242;-57
2023/06/08 11:52:24;;;;;;;5.67;4.90;;;21.20;50.40;;;;;;5025922;28;20469;-57
2023/06/08 11:54:53;;;;;;;4.97;4.23;;;21.70;50.30;;;;;;5020437;28;20464;-58
2023/06/08 11:57:19;;;;;;;6.20;5.10;;;22.20;49.40;;;;;;5022189;28;21185;-58
2023/06/08 11:59:45;;;;;;;7.30;4.90;;;22.70;48.00;;;;;;5018411;28;20431;-58
2023/06/08 12:02:11;;;;;;;7.97;4.93;;;23.20;46.30;;;;;;5025374;28;20199;-58
2023/06/08 12:04:37;;;;;;;5.50;4.30;;;23.60;45.00;;;;;;5021157;28;20475;-55
2023/06/08 12:07:10;;;;;;;6.57;4.80;;;24.00;44.70;;;;;;5022055;28;20193;-58
2023/06/08 12:09:48;;;;;;;5.37;4.60;;;24.40;43.90;;;;;;5023577;28;20187;-57
2023/06/08 12:12:14;;;;;;;5.63;4.17;;;24.60;43.10;;;;;;5019521;28;20438;-57
2023/06/08 12:14:47;;;;;;;7.17;4.50;;;24.90;41.60;;;;;;5019693;28;20840;-58
2023/06/08 12:17:17;;;;;;;5.83;4.90;;;25.10;39.30;;;;;;5021866;28;20176;-59
2023/06/08 12:19:45;;;;;;;5.50;4.67;;;25.20;39.90;;;;;;5023437;28;20536;-58
2023/06/08 12:22:13;;;;;;;8.57;4.80;;;25.40;39.20;;;;;;5022755;28;20508;-58
2023/06/08 12:24:38;;;;;;;5.40;4.10;;;25.70;39.00;;;;;;5022541;28;20971;-58
2023/06/08 12:27:07;;;;;;;5.30;4.40;;;26.00;38.60;;;;;;5022886;28;20425;-58
2023/06/08 12:29:37;;;;;;;7.97;4.53;;;26.20;35.90;;;;;;5021867;28;20218;-58
2023/06/08 12:32:05;;;;;;;5.43;4.80;;;26.40;35.80;;;;;;5026295;28;20445;-58
2023/06/08 12:34:32;;;;;;;6.00;4.30;;;26.60;36.60;;;;;;5024476;28;20473;-57
2023/06/08 12:36:58;;;;;;;6.40;4.73;;;26.90;36.00;;;;;;5029977;28;20977;-58
2023/06/08 12:39:24;;;;;;;8.63;4.53;;;27.10;34.70;;;;;;5021635;28;20501;-59
2023/06/08 12:41:50;;;;;;;4.70;4.30;;;27.30;34.20;;;;;;5027372;28;20458;-65
2023/06/08 12:44:16;;;;;;;7.30;4.40;;;27.50;33.10;;;;;;5029375;28;20199;-58
2023/06/08 12:46:42;;;;;;;5.60;4.70;;;27.50;30.70;;;;;;5025816;28;20444;-58